Time;durP1;ratioP1;P1;durP2;ratioP2;P2;SDS_P1;SDS_P2;PMS_P1;PMS_P2;Temp;Humidity;BMP_temperature;BMP_pressure;BME280_temperature;BME280_humidity;BME280_pressure;Samples;Min_cycle;Max_cycle;Signal;HPM_P1;HPM_P2
2022/12/26 00:01:13;;;;;;;32.58;20.40;;;9.40;99.90;;;;;;5036370;28;20029;-75
2022/12/26 00:03:39;;;;;;;32.90;21.15;;;9.50;99.90;;;;;;5036185;28;20386;-76
2022/12/26 00:06:14;;;;;;;38.70;21.83;;;9.50;99.90;;;;;;5053717;28;20461;-76
2022/12/26 00:08:40;;;;;;;35.20;21.02;;;9.40;99.90;;;;;;5056638;28;20081;-74
2022/12/26 00:11:06;;;;;;;40.88;23.48;;;9.50;99.90;;;;;;5040726;28;20029;-75
2022/12/26 00:13:32;;;;;;;41.13;23.17;;;9.40;99.90;;;;;;5036482;28;20021;-74
2022/12/26 00:15:57;;;;;;;38.10;23.55;;;9.50;99.90;;;;;;5051227;28;20025;-76
2022/12/26 00:18:23;;;;;;;36.80;23.30;;;9.60;99.90;;;;;;5051570;28;20024;-76
2022/12/26 00:20:48;;;;;;;35.45;22.95;;;9.50;99.90;;;;;;5037809;28;20030;-76
2022/12/26 00:23:14;;;;;;;37.08;23.23;;;9.50;99.90;;;;;;5052435;28;20477;-76
2022/12/26 00:25:39;;;;;;;41.08;24.92;;;9.60;99.90;;;;;;5056228;28;20049;-75
2022/12/26 00:28:05;;;;;;;41.30;24.27;;;10.10;99.90;;;;;;5055840;28;20017;-76
2022/12/26 00:30:32;;;;;;;40.80;25.27;;;9.50;99.90;;;;;;5051589;28;20041;-74
2022/12/26 00:32:57;;;;;;;42.60;25.65;;;9.50;99.90;;;;;;5035470;28;20048;-74
2022/12/26 00:35:24;;;;;;;45.35;26.98;;;9.50;99.90;;;;;;5034267;28;20107;-76
2022/12/26 00:37:49;;;;;;;45.05;26.00;;;9.50;99.90;;;;;;5040572;28;20466;-76
2022/12/26 00:40:15;;;;;;;43.55;25.55;;;9.60;99.90;;;;;;5038127;28;20022;-76
2022/12/26 00:42:40;;;;;;;40.75;26.98;;;9.50;99.90;;;;;;5039758;28;20029;-74
2022/12/26 00:45:06;;;;;;;45.38;26.48;;;9.60;99.90;;;;;;5038615;28;20024;-73
2022/12/26 00:47:32;;;;;;;45.05;26.52;;;9.50;99.90;;;;;;5039726;28;20586;-76
2022/12/26 00:49:58;;;;;;;38.85;25.73;;;9.60;99.90;;;;;;5035288;28;20037;-76
2022/12/26 00:52:23;;;;;;;38.35;25.38;;;9.60;99.90;;;;;;5037570;28;20068;-75
2022/12/26 00:54:49;;;;;;;41.28;25.65;;;9.60;99.90;;;;;;5036584;28;20040;-74
2022/12/26 00:57:14;;;;;;;39.38;24.77;;;9.70;99.90;;;;;;5037717;28;20013;-74
2022/12/26 00:59:40;;;;;;;39.78;24.52;;;9.60;99.90;;;;;;5034369;28;20033;-76
2022/12/26 01:02:36;;;;;;;39.97;25.23;;;9.70;99.90;;;;;;5039018;28;20017;-75
2022/12/26 01:04:51;;;;;;;41.40;24.85;;;9.70;99.90;;;;;;5039943;28;20049;-75
2022/12/26 01:07:16;;;;;;;40.65;25.30;;;9.80;99.90;;;;;;5037137;28;20056;-74
2022/12/26 01:09:42;;;;;;;39.25;25.95;;;9.70;99.90;;;;;;5044717;28;20037;-75
2022/12/26 01:12:07;;;;;;;42.55;26.80;;;9.60;99.90;;;;;;5041841;28;20040;-76
2022/12/26 01:14:33;;;;;;;39.85;24.92;;;9.60;99.90;;;;;;5041208;28;20033;-76
2022/12/26 01:16:59;;;;;;;36.72;23.33;;;9.60;99.90;;;;;;5043870;28;20021;-75
2022/12/26 01:19:24;;;;;;;40.65;24.40;;;9.60;99.90;;;;;;5040298;28;20071;-75
2022/12/26 01:21:51;;;;;;;38.10;24.60;;;9.60;99.90;;;;;;5039072;28;20026;-75
2022/12/26 01:24:17;;;;;;;38.00;24.30;;;9.60;99.90;;;;;;5035852;28;20032;-75
2022/12/26 01:26:42;;;;;;;35.83;24.00;;;9.70;99.90;;;;;;5035572;28;20054;-74
2022/12/26 01:29:08;;;;;;;37.15;23.17;;;9.60;99.90;;;;;;5033277;28;20033;-75
2022/12/26 01:31:34;;;;;;;37.45;23.70;;;9.60;99.90;;;;;;5033825;28;20059;-74
2022/12/26 01:33:59;;;;;;;36.95;23.58;;;9.60;99.90;;;;;;5032838;28;20095;-75
2022/12/26 01:36:25;;;;;;;33.30;23.45;;;9.60;99.90;;;;;;5034028;28;20052;-74
2022/12/26 01:38:50;;;;;;;34.08;23.83;;;9.60;99.90;;;;;;5034003;28;20021;-75
2022/12/26 01:41:16;;;;;;;35.97;23.42;;;9.50;99.90;;;;;;5033233;28;20025;-74
2022/12/26 01:43:55;;;;;;;31.52;23.25;;;9.50;99.90;;;;;;5037439;28;20096;-75
2022/12/26 01:46:41;;;;;;;30.92;23.38;;;9.60;99.90;;;;;;5032952;28;20343;-76
2022/12/26 01:49:14;;;;;;;33.08;21.58;;;9.60;99.90;;;;;;5032885;28;20083;-75
2022/12/26 01:51:47;;;;;;;31.60;22.60;;;9.60;99.90;;;;;;5035570;28;20040;-74
2022/12/26 01:54:14;;;;;;;32.75;23.67;;;9.60;99.90;;;;;;5035371;28;20025;-75
2022/12/26 01:56:42;;;;;;;34.42;21.20;;;9.70;99.90;;;;;;5035854;28;20109;-74
2022/12/26 01:59:17;;;;;;;32.15;23.70;;;9.70;99.90;;;;;;5035657;28;20099;-75
2022/12/26 02:01:46;;;;;;;35.45;23.20;;;9.60;99.90;;;;;;5034617;28;20037;-75
2022/12/26 02:07:03;;;;;;;34.28;23.42;;;9.50;99.90;;;;;;5033922;28;20091;-76
2022/12/26 02:09:30;;;;;;;31.60;23.23;;;9.50;99.90;;;;;;5034976;28;20041;-75
2022/12/26 02:12:12;;;;;;;37.10;25.48;;;9.50;99.90;;;;;;5041175;28;20036;-76
2022/12/26 02:14:39;;;;;;;39.22;23.88;;;9.40;99.90;;;;;;5054237;28;20029;-76
2022/12/26 02:17:05;;;;;;;34.47;25.17;;;9.40;99.90;;;;;;5054498;28;20074;-76
2022/12/26 02:19:46;;;;;;;34.60;23.83;;;9.40;99.90;;;;;;5056010;28;20040;-76
2022/12/26 02:22:53;;;;;;;32.47;24.38;;;9.30;99.90;;;;;;5055669;28;20112;-75
2022/12/26 02:25:56;;;;;;;32.97;23.58;;;9.40;99.90;;;;;;5019444;28;20113;-75
2022/12/26 02:29:03;;;;;;;33.75;24.52;;;9.40;99.90;;;;;;5054328;28;20021;-75
2022/12/26 02:31:45;;;;;;;32.38;24.63;;;9.30;99.90;;;;;;5018497;28;20045;-75
2022/12/26 02:34:42;;;;;;;30.80;24.42;;;9.30;99.90;;;;;;5053244;28;20090;-74
2022/12/26 02:37:19;;;;;;;31.95;22.98;;;9.30;99.90;;;;;;5052250;28;20041;-76
2022/12/26 02:39:54;;;;;;;33.10;24.40;;;9.30;99.90;;;;;;5053313;28;20075;-76
2022/12/26 02:42:34;;;;;;;27.67;22.08;;;9.30;99.90;;;;;;5053054;28;20033;-75
2022/12/26 02:47:56;;;;;;;27.88;21.33;;;9.20;99.90;;;;;;5052488;28;20114;-76
2022/12/26 03:13:18;;;;;;;27.55;20.80;;;9.50;99.90;;;;;;5050047;28;20032;-75
2022/12/26 03:18:33;;;;;;;27.35;19.33;;;9.40;99.90;;;;;;5054035;28;20051;-73
2022/12/26 03:20:59;;;;;;;24.77;19.50;;;9.40;99.90;;;;;;5053036;28;20490;-76
2022/12/26 03:23:27;;;;;;;25.48;19.48;;;9.40;99.90;;;;;;5053152;28;20106;-75
2022/12/26 03:28:41;;;;;;;23.00;18.40;;;9.40;99.90;;;;;;5056556;28;20059;-75
2022/12/26 03:31:13;;;;;;;22.55;18.58;;;9.40;99.90;;;;;;5061417;28;20215;-75
2022/12/26 03:36:45;;;;;;;23.02;17.05;;;9.30;99.90;;;;;;5052937;28;20435;-76
2022/12/26 04:44:13;;;;;;;7.55;6.80;;;8.60;99.90;;;;;;5055657;28;20040;-74
2022/12/26 04:46:41;;;;;;;11.05;6.60;;;8.60;99.90;;;;;;5055918;28;20029;-74
2022/12/26 04:51:56;;;;;;;10.60;6.53;;;8.70;99.90;;;;;;5054924;28;20059;-74
2022/12/26 04:54:24;;;;;;;9.80;5.95;;;8.80;99.90;;;;;;5054980;28;20017;-75
2022/12/26 04:56:50;;;;;;;12.13;6.50;;;8.80;99.90;;;;;;5055812;28;20071;-75
2022/12/26 04:59:16;;;;;;;6.85;5.88;;;8.80;99.90;;;;;;5057161;28;20024;-77
2022/12/26 05:10:26;;;;;;;8.70;5.38;;;8.90;99.90;;;;;;5056252;28;20075;-75
2022/12/26 05:12:52;;;;;;;6.25;5.65;;;8.90;99.90;;;;;;5050114;28;20017;-76
2022/12/26 05:15:19;;;;;;;7.35;5.28;;;8.90;99.90;;;;;;5055433;28;20031;-75
2022/12/26 05:29:05;;;;;;;6.03;5.35;;;8.90;99.90;;;;;;5032205;28;20068;-75
2022/12/26 05:31:31;;;;;;;8.77;6.30;;;8.80;99.90;;;;;;5039812;28;20025;-75
2022/12/26 05:34:06;;;;;;;7.18;5.15;;;8.80;99.90;;;;;;5050146;28;20013;-74
2022/12/26 05:36:47;;;;;;;5.25;4.75;;;8.70;99.90;;;;;;5048927;28;20488;-75
2022/12/26 05:39:13;;;;;;;5.47;4.97;;;8.80;99.90;;;;;;5047011;28;20604;-74
2022/12/26 05:41:39;;;;;;;7.88;4.93;;;8.80;99.90;;;;;;5052942;28;20112;-74
2022/12/26 05:44:06;;;;;;;6.78;5.10;;;8.80;99.90;;;;;;5049976;28;20033;-74
2022/12/26 05:46:32;;;;;;;8.73;6.05;;;8.90;99.90;;;;;;5051228;28;20037;-74
2022/12/26 05:48:58;;;;;;;5.03;4.47;;;8.90;99.90;;;;;;5047234;28;20029;-75
2022/12/26 05:51:24;;;;;;;5.15;4.65;;;9.00;99.90;;;;;;5052598;28;21595;-75
2022/12/26 05:53:50;;;;;;;12.30;5.25;;;9.00;99.90;;;;;;5050168;28;20075;-76
2022/12/26 05:56:17;;;;;;;5.82;5.15;;;9.00;99.90;;;;;;5047447;28;20025;-76
2022/12/26 05:58:43;;;;;;;6.05;5.05;;;9.00;99.90;;;;;;5044245;28;20037;-76
2022/12/26 06:01:14;;;;;;;8.20;5.22;;;9.00;99.90;;;;;;5039165;28;20029;-74
2022/12/26 06:03:42;;;;;;;;;;;9.00;99.90;;;;;;5039959;28;20036;-74
2022/12/26 06:06:08;;;;;;;6.75;4.50;;;9.00;99.90;;;;;;5039917;28;19913;-74
2022/12/26 06:08:34;;;;;;;6.72;4.90;;;8.90;99.90;;;;;;5048038;28;20027;-76
2022/12/26 06:11:03;;;;;;;6.32;4.97;;;8.90;99.90;;;;;;5050207;28;20037;-76
2022/12/26 06:13:30;;;;;;;5.18;4.68;;;9.70;99.90;;;;;;5051024;28;20021;-74
2022/12/26 06:15:55;;;;;;;5.00;4.50;;;8.90;99.90;;;;;;5051737;28;20029;-75
2022/12/26 06:18:21;;;;;;;6.30;4.85;;;8.90;99.90;;;;;;5051864;28;20136;-75
2022/12/26 06:20:46;;;;;;;5.32;4.63;;;8.90;99.90;;;;;;5051781;28;20025;-73
2022/12/26 06:23:12;;;;;;;6.60;4.82;;;8.90;99.90;;;;;;5051599;28;20120;-74
2022/12/26 06:25:37;;;;;;;6.18;4.55;;;9.00;99.90;;;;;;5051726;28;20064;-75
2022/12/26 06:28:03;;;;;;;4.65;4.25;;;8.90;99.90;;;;;;5051603;28;20120;-74
2022/12/26 06:30:28;;;;;;;4.65;4.25;;;9.00;99.90;;;;;;5048073;28;20043;-75
2022/12/26 06:32:54;;;;;;;6.10;3.88;;;8.90;99.90;;;;;;5048238;28;20359;-74
2022/12/26 06:35:20;;;;;;;4.63;4.22;;;9.00;99.90;;;;;;5044603;28;20034;-74
2022/12/26 06:37:45;;;;;;;5.43;4.47;;;9.00;99.90;;;;;;5049083;28;20091;-74
2022/12/26 06:40:11;;;;;;;5.93;3.90;;;9.00;99.90;;;;;;5043920;28;20476;-75
2022/12/26 06:42:36;;;;;;;7.85;3.50;;;9.00;99.90;;;;;;5046989;28;20025;-74
2022/12/26 06:45:03;;;;;;;5.32;3.88;;;9.10;99.90;;;;;;5047524;28;20079;-75
2022/12/26 06:47:28;;;;;;;4.82;3.67;;;9.00;99.90;;;;;;5046841;28;20056;-75
2022/12/26 06:49:54;;;;;;;4.35;3.28;;;9.00;99.90;;;;;;5044019;28;20072;-77
2022/12/26 06:52:20;;;;;;;4.88;3.50;;;9.10;99.90;;;;;;5048494;28;20021;-74
2022/12/26 06:54:45;;;;;;;4.65;3.35;;;9.10;99.90;;;;;;5048502;28;20036;-74
2022/12/26 06:57:11;;;;;;;6.70;4.72;;;9.00;99.90;;;;;;5049870;28;20016;-74
2022/12/26 06:59:37;;;;;;;3.80;3.42;;;9.00;99.90;;;;;;5050192;28;20040;-74
2022/12/26 07:02:02;;;;;;;5.05;3.65;;;9.00;99.90;;;;;;5048413;28;20068;-76
2022/12/26 07:04:28;;;;;;;8.23;3.90;;;9.00;99.90;;;;;;5049610;28;20037;-76
2022/12/26 07:06:53;;;;;;;7.20;3.15;;;9.00;99.90;;;;;;5048544;28;20021;-75
2022/12/26 07:09:19;;;;;;;6.38;3.33;;;9.00;99.90;;;;;;5048554;28;20079;-75
2022/12/26 07:11:47;;;;;;;5.80;3.17;;;9.00;99.90;;;;;;5048192;28;20029;-75
2022/12/26 07:14:14;;;;;;;8.23;3.15;;;9.00;99.90;;;;;;5050518;28;20036;-75
2022/12/26 07:16:42;;;;;;;8.02;3.40;;;9.10;99.90;;;;;;5049891;28;20013;-75
2022/12/26 07:19:09;;;;;;;7.05;3.10;;;9.20;99.90;;;;;;5051037;28;20100;-74
2022/12/26 07:21:35;;;;;;;7.97;3.78;;;9.30;99.90;;;;;;5051032;28;20029;-76
2022/12/26 07:24:01;;;;;;;6.85;3.13;;;9.30;99.90;;;;;;5050868;28;20543;-75
2022/12/26 07:26:26;;;;;;;4.45;2.85;;;9.30;99.90;;;;;;5051024;28;20092;-75
2022/12/26 07:28:55;;;;;;;6.68;3.13;;;9.40;99.90;;;;;;5051233;28;20033;-75
2022/12/26 07:31:22;;;;;;;7.05;3.00;;;9.40;99.90;;;;;;5052133;28;20025;-75
2022/12/26 07:33:48;;;;;;;4.90;2.97;;;9.40;99.90;;;;;;5051668;28;20025;-74
2022/12/26 07:36:14;;;;;;;8.27;3.28;;;9.30;99.90;;;;;;5050063;28;20032;-74
2022/12/26 07:38:40;;;;;;;6.10;2.58;;;9.40;99.90;;;;;;5049325;28;20028;-73
2022/12/26 07:43:50;;;;;;;3.00;2.10;;;9.50;99.90;;;;;;5043789;28;20381;-73
2022/12/26 07:46:16;;;;;;;4.90;2.65;;;9.60;99.90;;;;;;5048044;28;20025;-75
2022/12/26 07:48:44;;;;;;;2.97;2.15;;;9.50;99.90;;;;;;5043550;28;20419;-76
2022/12/26 07:51:10;;;;;;;9.57;2.80;;;9.60;99.90;;;;;;5039215;28;20504;-73
2022/12/26 07:53:36;;;;;;;9.88;2.67;;;9.70;99.90;;;;;;5053749;28;20107;-74
2022/12/26 07:56:02;;;;;;;3.35;2.05;;;9.70;99.90;;;;;;5038854;28;20025;-74
2022/12/26 07:58:27;;;;;;;9.75;2.63;;;9.70;99.90;;;;;;5048057;28;20534;-74
2022/12/26 08:00:53;;;;;;;5.07;2.72;;;9.80;99.90;;;;;;5044215;28;20096;-72
2022/12/26 08:03:19;;;;;;;9.07;2.58;;;9.80;99.90;;;;;;5053983;28;20025;-74
2022/12/26 08:05:48;;;;;;;6.45;2.60;;;9.70;99.90;;;;;;5051258;28;20507;-73
2022/12/26 08:08:14;;;;;;;6.15;2.47;;;9.80;99.90;;;;;;5048482;28;20043;-73
2022/12/26 08:10:40;;;;;;;9.55;2.92;;;9.80;99.90;;;;;;5047476;28;20037;-73
2022/12/26 08:13:06;;;;;;;8.80;2.83;;;9.70;99.90;;;;;;5053950;28;20028;-74
2022/12/26 08:15:31;;;;;;;7.63;2.60;;;9.80;99.90;;;;;;5053422;28;20025;-74
2022/12/26 08:17:57;;;;;;;8.40;2.70;;;9.70;99.90;;;;;;5053657;28;20547;-74
2022/12/26 08:20:23;;;;;;;5.25;2.92;;;9.80;99.90;;;;;;5054391;28;20461;-75
2022/12/26 08:22:51;;;;;;;4.18;3.03;;;9.80;99.90;;;;;;5053769;28;20160;-74
2022/12/26 08:25:16;;;;;;;3.42;2.60;;;9.80;99.90;;;;;;5053000;28;20505;-74
2022/12/26 08:27:42;;;;;;;12.73;3.83;;;9.80;99.90;;;;;;5054681;28;20056;-74
2022/12/26 08:30:08;;;;;;;12.70;2.90;;;9.90;99.90;;;;;;5054363;28;20388;-74
2022/12/26 08:32:34;;;;;;;9.82;2.72;;;9.90;99.90;;;;;;5054448;28;20420;-75
2022/12/26 08:34:59;;;;;;;7.75;2.88;;;9.90;99.90;;;;;;5053405;28;20025;-76
2022/12/26 08:37:25;;;;;;;6.25;3.92;;;9.90;99.90;;;;;;5051112;28;20033;-75
2022/12/26 08:39:52;;;;;;;7.97;6.00;;;10.00;99.90;;;;;;5052139;28;20124;-75
2022/12/26 08:42:18;;;;;;;8.07;2.25;;;10.10;99.90;;;;;;5051593;28;20032;-75
2022/12/26 08:44:44;;;;;;;7.00;2.25;;;10.10;99.90;;;;;;5051272;28;20029;-75
2022/12/26 08:47:10;;;;;;;4.70;2.80;;;10.10;99.90;;;;;;5054503;28;20047;-74
2022/12/26 08:49:36;;;;;;;4.85;2.63;;;10.10;99.90;;;;;;5050487;28;20025;-76
2022/12/26 08:52:02;;;;;;;7.20;2.67;;;10.10;99.90;;;;;;5053993;28;20032;-75
2022/12/26 08:54:27;;;;;;;4.75;2.47;;;10.10;99.90;;;;;;5054922;28;20029;-76
2022/12/26 08:56:53;;;;;;;5.90;3.05;;;10.10;99.90;;;;;;5053897;28;20087;-74
2022/12/26 08:59:18;;;;;;;6.85;3.35;;;10.00;99.90;;;;;;5052018;28;20116;-74
2022/12/26 09:01:44;;;;;;;3.42;2.72;;;9.90;99.90;;;;;;5050221;28;20091;-76
2022/12/26 09:04:10;;;;;;;3.80;2.78;;;9.90;99.90;;;;;;5053276;28;20018;-73
2022/12/26 09:06:38;;;;;;;7.80;2.75;;;9.80;99.90;;;;;;5061695;28;20085;-74
2022/12/26 09:09:05;;;;;;;8.27;2.83;;;9.80;99.90;;;;;;5057059;28;20033;-73
2022/12/26 09:11:31;;;;;;;5.63;2.45;;;9.80;99.90;;;;;;5064600;28;20014;-73
2022/12/26 09:14:00;;;;;;;8.20;2.92;;;9.70;99.90;;;;;;5066186;28;20024;-75
2022/12/26 09:16:29;;;;;;;10.77;3.15;;;9.70;99.90;;;;;;5066544;28;20009;-75
2022/12/26 09:19:00;;;;;;;6.40;2.35;;;9.60;99.90;;;;;;5061788;28;20035;-76
2022/12/26 09:21:26;;;;;;;12.02;2.67;;;9.60;99.90;;;;;;5057278;28;20474;-75
2022/12/26 09:24:04;;;;;;;9.20;1.95;;;9.60;99.90;;;;;;5051912;28;20034;-75
2022/12/26 09:26:30;;;;;;;9.40;1.90;;;9.60;99.90;;;;;;5051671;28;20021;-75
2022/12/26 09:28:56;;;;;;;8.60;2.28;;;9.60;99.90;;;;;;5061348;28;20022;-76
2022/12/26 09:31:26;;;;;;;12.60;3.33;;;9.60;99.90;;;;;;5056845;28;20455;-76
2022/12/26 09:33:54;;;;;;;15.43;2.65;;;9.70;99.90;;;;;;5049662;28;20021;-76
2022/12/26 09:36:22;;;;;;;15.48;2.30;;;9.60;99.90;;;;;;5041130;28;20111;-76
2022/12/26 09:38:49;;;;;;;12.25;1.90;;;9.60;99.90;;;;;;5051186;28;20029;-76
2022/12/26 09:41:39;;;;;;;10.35;2.20;;;9.50;99.90;;;;;;5056437;28;20372;-75
2022/12/26 09:44:29;;;;;;;8.60;1.98;;;9.30;99.90;;;;;;5051864;28;20465;-75
2022/12/26 09:47:13;;;;;;;15.88;1.58;;;9.10;99.90;;;;;;5046205;28;20033;-76
2022/12/26 09:50:04;;;;;;;10.52;1.73;;;8.80;99.90;;;;;;5042303;28;20037;-75
2022/12/26 09:52:32;;;;;;;6.60;1.88;;;8.60;99.90;;;;;;5046848;28;20022;-75
2022/12/26 09:55:03;;;;;;;12.43;1.70;;;8.60;99.90;;;;;;5041909;28;20125;-75
2022/12/26 09:57:42;;;;;;;;;;;7.80;99.90;;;;;;5036715;28;20481;-75
2022/12/26 10:00:18;;;;;;;8.43;1.73;;;8.50;99.90;;;;;;5033949;28;19909;-75
2022/12/26 10:02:50;;;;;;;16.42;1.60;;;8.50;99.90;;;;;;5034685;28;20033;-76
2022/12/26 10:05:16;;;;;;;13.07;2.50;;;8.50;99.90;;;;;;5034867;28;20422;-76
2022/12/26 10:07:47;;;;;;;13.20;3.45;;;8.50;99.90;;;;;;5035180;28;20032;-75
2022/12/26 10:10:26;;;;;;;8.57;1.73;;;8.40;99.90;;;;;;5034034;28;20041;-75
2022/12/26 10:13:21;;;;;;;9.45;1.42;;;8.40;99.90;;;;;;5049160;28;20504;-73
2022/12/26 10:16:12;;;;;;;10.45;0.95;;;8.30;99.90;;;;;;5054648;28;20033;-75
2022/12/26 10:18:56;;;;;;;6.82;1.45;;;8.30;99.90;;;;;;5053554;28;20083;-74
2022/12/26 10:21:24;;;;;;;12.05;1.50;;;8.30;99.90;;;;;;5050652;28;20013;-75
2022/12/26 10:24:01;;;;;;;10.23;1.92;;;8.30;99.90;;;;;;5043691;28;20025;-73
2022/12/26 10:26:36;;;;;;;7.32;1.35;;;8.30;99.90;;;;;;5032452;28;20083;-74
2022/12/26 10:29:12;;;;;;;10.40;1.52;;;8.30;99.90;;;;;;5031830;28;20105;-73
2022/12/26 10:31:58;;;;;;;10.20;1.50;;;8.30;99.90;;;;;;5033217;28;20037;-75
2022/12/26 10:34:29;;;;;;;15.25;2.42;;;8.30;99.90;;;;;;5033495;28;20132;-75
2022/12/26 10:37:19;;;;;;;10.88;1.92;;;8.20;99.90;;;;;;5033582;28;20022;-75
2022/12/26 10:40:14;;;;;;;11.10;2.43;;;8.20;99.90;;;;;;5033902;28;20461;-75
2022/12/26 10:42:43;;;;;;;11.85;1.67;;;8.20;99.90;;;;;;5035204;28;20310;-75
2022/12/26 10:45:26;;;;;;;6.47;1.00;;;8.20;99.90;;;;;;5032118;28;20029;-75
2022/12/26 10:47:52;;;;;;;4.57;1.75;;;8.20;99.90;;;;;;5033092;28;20052;-75
2022/12/26 10:50:33;;;;;;;8.07;1.30;;;8.20;99.90;;;;;;5036970;28;20120;-74
2022/12/26 10:53:02;;;;;;;9.05;2.60;;;8.20;99.90;;;;;;5040605;28;20021;-72
2022/12/26 10:55:33;;;;;;;9.15;2.30;;;8.10;99.90;;;;;;5032892;28;20098;-73
2022/12/26 10:58:15;;;;;;;10.90;1.65;;;8.10;99.90;;;;;;5032477;28;20531;-74
2022/12/26 11:00:41;;;;;;;10.77;1.65;;;8.10;99.90;;;;;;5037992;28;20032;-74
2022/12/26 11:03:12;;;;;;;8.18;2.10;;;8.20;99.90;;;;;;5041435;28;20025;-74
2022/12/26 11:05:39;;;;;;;;;;;8.00;99.90;;;;;;5035045;28;20359;-72
2022/12/26 11:08:37;;;;;;;5.75;1.40;;;7.90;99.90;;;;;;5037882;28;20420;-73
2022/12/26 11:11:10;;;;;;;9.70;2.20;;;7.80;99.90;;;;;;5042479;28;20094;-74
2022/12/26 11:13:45;;;;;;;6.93;1.63;;;7.70;99.90;;;;;;5046563;28;20032;-73
2022/12/26 11:16:11;;;;;;;4.85;1.00;;;7.70;99.90;;;;;;5031149;28;20040;-74
2022/12/26 11:18:38;;;;;;;6.72;1.35;;;7.70;99.90;;;;;;5031859;28;20025;-74
2022/12/26 11:21:16;;;;;;;9.00;1.73;;;7.70;99.90;;;;;;5033963;28;20663;-75
2022/12/26 11:23:42;;;;;;;11.43;1.38;;;7.80;99.90;;;;;;5040508;28;20078;-73
2022/12/26 11:26:26;;;;;;;5.80;1.17;;;7.70;99.90;;;;;;5049016;28;20049;-74
2022/12/26 11:29:17;;;;;;;4.15;1.08;;;7.70;99.90;;;;;;5052883;28;20030;-73
2022/12/26 11:31:55;;;;;;;7.32;1.00;;;7.70;99.90;;;;;;5032824;28;20029;-73
2022/12/26 11:34:35;;;;;;;5.45;1.23;;;7.70;99.90;;;;;;5034357;28;20025;-73
2022/12/26 11:37:02;;;;;;;6.95;0.90;;;7.70;99.90;;;;;;5036589;28;20071;-74
2022/12/26 11:39:35;;;;;;;1.65;0.80;;;7.70;99.90;;;;;;5050680;28;20033;-74
2022/12/26 11:42:11;;;;;;;5.90;1.20;;;7.70;99.90;;;;;;5040698;28;20041;-73
2022/12/26 11:44:40;;;;;;;11.57;1.20;;;7.20;99.90;;;;;;5036153;28;20032;-74
2022/12/26 11:47:10;;;;;;;13.15;1.73;;;7.70;99.90;;;;;;5035868;28;20090;-73
2022/12/26 11:50:00;;;;;;;3.30;1.10;;;7.80;99.90;;;;;;5036013;28;20088;-73
2022/12/26 11:52:54;;;;;;;5.30;1.02;;;7.80;99.90;;;;;;5044841;28;20108;-74
2022/12/26 11:55:25;;;;;;;6.93;1.33;;;7.80;99.90;;;;;;5043275;28;20026;-74
2022/12/26 11:58:16;;;;;;;6.38;1.10;;;7.80;99.90;;;;;;5036743;28;20113;-74
2022/12/26 12:01:06;;;;;;;6.10;1.05;;;7.80;99.90;;;;;;5043583;28;20854;-73
2022/12/26 12:03:39;;;;;;;9.30;1.50;;;7.70;99.90;;;;;;5048005;28;20056;-74
2022/12/26 12:06:34;;;;;;;16.83;2.50;;;7.70;99.90;;;;;;5032590;28;20036;-74
2022/12/26 12:09:05;;;;;;;9.60;1.35;;;7.70;99.90;;;;;;5035790;28;20041;-75
2022/12/26 12:11:56;;;;;;;6.22;1.60;;;7.80;99.90;;;;;;5035536;28;20040;-74
2022/12/26 12:14:39;;;;;;;4.95;1.05;;;7.80;99.90;;;;;;5033675;28;20059;-75
2022/12/26 12:17:28;;;;;;;5.43;1.00;;;7.70;99.90;;;;;;5049003;28;20358;-74
2022/12/26 12:20:29;;;;;;;10.50;1.00;;;7.70;99.90;;;;;;5053099;28;20025;-71
2022/12/26 12:23:25;;;;;;;6.82;0.80;;;7.70;99.90;;;;;;5031373;28;20082;-74
2022/12/26 12:26:31;;;;;;;3.67;0.88;;;7.80;99.90;;;;;;5046995;28;20669;-74
2022/12/26 12:29:17;;;;;;;1.65;0.60;;;7.80;99.90;;;;;;5053284;28;20025;-73
2022/12/26 12:31:52;;;;;;;2.35;0.60;;;7.70;99.90;;;;;;5052589;28;20043;-73
2022/12/26 12:34:34;;;;;;;6.50;0.95;;;7.70;99.90;;;;;;5045495;28;20033;-73
2022/12/26 12:37:28;;;;;;;2.85;0.77;;;7.70;99.90;;;;;;5053065;28;20033;-74
2022/12/26 12:40:15;;;;;;;4.18;0.85;;;7.70;99.90;;;;;;5043765;28;20037;-73
2022/12/26 12:43:02;;;;;;;10.50;2.30;;;7.70;99.90;;;;;;5050739;28;20025;-74
2022/12/26 12:45:49;;;;;;;8.40;1.08;;;7.60;99.90;;;;;;5054269;28;20033;-73
2022/12/26 12:49:06;;;;;;;3.03;1.48;;;7.50;99.90;;;;;;5043155;28;20018;-73
2022/12/26 12:51:40;;;;;;;3.97;0.60;;;7.40;99.90;;;;;;5033511;28;20045;-74
2022/12/26 12:54:24;;;;;;;2.05;0.57;;;7.20;99.90;;;;;;5035123;28;20559;-74
2022/12/26 12:57:11;;;;;;;6.80;0.73;;;7.10;99.90;;;;;;5035409;28;20457;-74
2022/12/26 12:59:57;;;;;;;4.43;1.17;;;7.10;99.90;;;;;;5034135;28;20025;-74
2022/12/26 13:02:33;;;;;;;2.70;1.08;;;7.00;99.90;;;;;;5042705;28;20025;-74
2022/12/26 13:05:24;;;;;;;6.38;0.93;;;7.00;99.90;;;;;;5034455;28;20025;-74
2022/12/26 13:07:52;;;;;;;;;;;7.00;99.90;;;;;;5029768;28;20048;-73
2022/12/26 13:10:24;;;;;;;3.55;1.50;;;7.00;99.90;;;;;;5040197;28;19916;-74
2022/12/26 13:12:52;;;;;;;2.20;1.00;;;7.00;99.90;;;;;;5049241;28;20024;-74
2022/12/26 13:15:32;;;;;;;6.25;1.10;;;7.00;99.90;;;;;;5046396;28;20647;-73
2022/12/26 13:18:15;;;;;;;6.82;0.73;;;7.10;99.90;;;;;;5050381;28;20032;-73
2022/12/26 13:20:50;;;;;;;4.88;0.80;;;7.20;99.90;;;;;;5048555;28;20396;-76
2022/12/26 13:26:19;;;;;;;3.08;0.60;;;7.40;99.90;;;;;;5053261;28;20051;-75
2022/12/26 13:28:54;;;;;;;3.97;0.90;;;7.40;99.90;;;;;;5053478;28;20018;-74
2022/12/26 13:31:20;;;;;;;4.20;0.70;;;7.30;99.90;;;;;;5036753;28;20022;-74
2022/12/26 13:33:55;;;;;;;7.78;1.05;;;7.30;99.90;;;;;;5041014;28;20382;-73
2022/12/26 13:36:43;;;;;;;4.35;0.60;;;7.10;99.90;;;;;;5031745;28;20017;-73
2022/12/26 13:39:24;;;;;;;3.25;0.52;;;7.00;99.90;;;;;;5031362;28;20464;-75
2022/12/26 13:44:35;;;;;;;4.57;0.93;;;6.90;99.90;;;;;;5032271;28;20479;-76
2022/12/26 13:47:02;;;;;;;6.47;0.77;;;6.80;99.90;;;;;;5040482;28;20115;-73
2022/12/26 13:49:37;;;;;;;3.88;0.80;;;6.90;99.90;;;;;;5052616;28;20123;-73
2022/12/26 13:52:14;;;;;;;6.10;1.00;;;6.90;99.90;;;;;;5050368;28;20032;-73
2022/12/26 13:54:46;;;;;;;10.32;1.02;;;6.90;99.90;;;;;;5052846;28;20874;-74
2022/12/26 13:57:38;;;;;;;2.53;0.82;;;6.90;99.90;;;;;;5049245;28;20111;-74
2022/12/26 14:00:09;;;;;;;4.22;1.08;;;6.90;99.90;;;;;;5045943;28;20029;-73
2022/12/26 14:02:53;;;;;;;5.47;1.52;;;6.90;99.90;;;;;;5051289;28;20028;-73
2022/12/26 14:05:35;;;;;;;5.47;0.80;;;6.90;99.90;;;;;;5050932;28;20063;-73
2022/12/26 14:08:20;;;;;;;7.53;1.33;;;6.90;99.90;;;;;;5053559;28;20024;-74
2022/12/26 14:10:52;;;;;;;2.03;1.25;;;6.90;99.90;;;;;;5047074;28;20037;-74
2022/12/26 14:13:39;;;;;;;6.10;0.95;;;6.80;99.90;;;;;;5042839;28;20500;-76
2022/12/26 14:16:24;;;;;;;4.22;0.90;;;6.80;99.90;;;;;;5042690;28;20124;-75
2022/12/26 14:19:20;;;;;;;9.10;1.67;;;6.80;99.90;;;;;;5039987;28;20051;-74
2022/12/26 14:22:18;;;;;;;8.90;1.80;;;6.70;99.90;;;;;;5041270;28;20037;-74
2022/12/26 14:25:11;;;;;;;2.03;0.70;;;6.70;99.90;;;;;;5044028;28;20048;-74
2022/12/26 14:27:50;;;;;;;7.00;0.80;;;6.70;99.90;;;;;;5043056;28;20033;-75
2022/12/26 14:30:27;;;;;;;6.32;0.98;;;6.60;99.90;;;;;;5037411;28;20041;-73
2022/12/26 14:33:26;;;;;;;8.20;1.00;;;6.50;99.90;;;;;;5041545;28;20017;-74
2022/12/26 14:36:21;;;;;;;4.47;0.73;;;6.50;99.90;;;;;;5036432;28;20022;-74
2022/12/26 14:39:24;;;;;;;7.95;0.98;;;6.50;99.90;;;;;;5035113;28;20104;-74
2022/12/26 14:44:50;;;;;;;6.63;1.52;;;6.30;99.90;;;;;;5044781;28;20044;-73
2022/12/26 14:47:44;;;;;;;7.93;1.15;;;6.40;99.90;;;;;;5043972;28;20036;-73
2022/12/26 14:50:31;;;;;;;6.65;0.95;;;6.30;99.90;;;;;;5045533;28;20585;-72
2022/12/26 14:53:27;;;;;;;5.60;0.88;;;6.20;99.90;;;;;;5043340;28;20029;-74
2022/12/26 14:56:14;;;;;;;5.20;0.80;;;6.20;99.90;;;;;;5036055;28;20446;-73
2022/12/26 14:58:45;;;;;;;12.38;1.92;;;6.10;99.90;;;;;;5035474;28;20029;-74
2022/12/26 15:01:11;;;;;;;7.03;1.25;;;6.10;99.90;;;;;;5046277;28;20037;-73
2022/12/26 15:03:55;;;;;;;9.07;0.95;;;6.10;99.90;;;;;;5044440;28;20047;-73
2022/12/26 15:06:21;;;;;;;5.22;0.90;;;6.10;99.90;;;;;;5044969;28;20049;-74
2022/12/26 15:09:01;;;;;;;5.18;0.93;;;6.10;99.90;;;;;;5042441;28;20516;-73
2022/12/26 15:11:35;;;;;;;5.97;1.10;;;6.00;99.90;;;;;;5046078;28;20033;-74
2022/12/26 15:14:48;;;;;;;8.30;2.63;;;5.90;99.90;;;;;;5044918;28;20056;-74
2022/12/26 15:17:29;;;;;;;5.32;1.40;;;5.90;99.90;;;;;;5047062;28;20033;-74
2022/12/26 15:20:22;;;;;;;18.80;5.13;;;5.70;99.90;;;;;;5047370;28;20017;-73
2022/12/26 15:22:50;;;;;;;7.05;1.60;;;5.60;99.90;;;;;;5046372;28;20029;-74
2022/12/26 15:25:37;;;;;;;6.75;1.30;;;5.60;99.90;;;;;;5039922;28;20045;-74
2022/12/26 15:28:33;;;;;;;7.47;1.25;;;5.40;99.90;;;;;;5035226;28;20037;-73
2022/12/26 15:31:05;;;;;;;4.70;1.10;;;5.40;99.90;;;;;;5037616;28;20033;-74
2022/12/26 15:33:56;;;;;;;4.90;1.23;;;5.40;99.90;;;;;;5045643;28;20037;-75
2022/12/26 15:36:47;;;;;;;4.93;1.83;;;5.30;99.90;;;;;;5039901;28;20033;-74
2022/12/26 15:39:18;;;;;;;10.63;1.45;;;5.30;99.90;;;;;;5043814;28;20033;-74
2022/12/26 15:41:45;;;;;;;7.15;1.73;;;5.20;99.90;;;;;;5040825;28;20025;-74